Station Historical Data
Daily Summary for April 23, 2017 Units:  English    Metric   Both
« Previous Day
Next Day »
Daily Weekly Monthly Yearly Custom
  High: Low: Average:
Temperature: 62.6 °F 33.0 °F 48.3 °F
Dew Point: 40.9 °F 23.6 °F 32.7 °F
Humidity: 91% 24% 60%
Wind Speed: 9.0mph 0.0mph 2.4mph
Wind Gust: 13.0mph - -
Wind- - SW
Pressure: 30.15 in 30.06 in -
Precipitation: 0.00 in    
Historical Graphs
 
 
Tabular Data for April 23, 2017
Time Temperature Dew Point Pressure Wind Wind Speed Wind Gust Humidity Rainfall Rate (Hourly)
00:04 38.7 °F 34.3 °F 30.13 in Calm     84% 0.00 in
00:09 38.6 °F 34.2 °F 30.13 in Calm     84% 0.00 in
00:14 38.8 °F 34.7 °F 30.14 in Calm     85% 0.00 in
00:19 38.6 °F 34.5 °F 30.14 in Calm     85% 0.00 in
00:24 38.6 °F 34.5 °F 30.14 in Calm   2.0 mph 85% 0.00 in
00:29 38.9 °F 35.1 °F 30.14 in Calm   2.0 mph 86% 0.00 in
00:34 38.8 °F 34.7 °F 30.14 in Calm   2.0 mph 85% 0.00 in
00:39 39.0 °F 35.2 °F 30.14 in Calm   1.0 mph 86% 0.00 in
00:44 38.9 °F 35.1 °F 30.14 in Calm     86% 0.00 in
00:49 38.7 °F 34.9 °F 30.14 in Calm     86% 0.00 in
00:54 38.5 °F 34.7 °F 30.14 in Calm   2.0 mph 86% 0.00 in
00:59 38.3 °F 34.8 °F 30.14 in Calm   2.0 mph 87% 0.00 in
01:04 38.3 °F 34.8 °F 30.14 in Calm     87% 0.00 in
01:09 38.3 °F 34.8 °F 30.14 in Calm     87% 0.00 in
01:14 38.1 °F 34.6 °F 30.14 in Calm     87% 0.00 in
01:19 37.9 °F 34.7 °F 30.14 in Calm     88% 0.00 in
01:24 37.7 °F 34.5 °F 30.14 in Calm     88% 0.00 in
01:29 37.4 °F 34.2 °F 30.14 in Calm     88% 0.00 in
01:34 37.1 °F 33.9 °F 30.14 in Calm     88% 0.00 in
01:39 36.9 °F 33.7 °F 30.14 in Calm     88% 0.00 in
01:44 36.7 °F 33.8 °F 30.14 in Calm     89% 0.00 in
01:49 36.7 °F 33.8 °F 30.14 in Calm     89% 0.00 in
01:54 36.4 °F 33.5 °F 30.14 in Calm     89% 0.00 in
01:59 36.4 °F 33.5 °F 30.14 in Calm     89% 0.00 in
02:04 36.2 °F 33.5 °F 30.14 in Calm     90% 0.00 in
02:09 36.1 °F 33.2 °F 30.14 in Calm     89% 0.00 in
02:14 36.0 °F 33.4 °F 30.13 in Calm     90% 0.00 in
02:19 35.9 °F 33.0 °F 30.13 in Calm     89% 0.00 in
02:24 35.5 °F 32.9 °F 30.13 in Calm     90% 0.00 in
02:29 35.4 °F 32.8 °F 30.13 in Calm     90% 0.00 in
02:34 35.4 °F 32.8 °F 30.13 in Calm     90% 0.00 in
02:39 35.3 °F 32.7 °F 30.13 in Calm     90% 0.00 in
02:44 35.2 °F 32.6 °F 30.13 in Calm     90% 0.00 in
02:49 35.2 °F 32.6 °F 30.12 in Calm     90% 0.00 in
02:54 35.1 °F 32.5 °F 30.12 in Calm     90% 0.00 in
02:59 35.1 °F 32.5 °F 30.12 in Calm     90% 0.00 in
03:04 35.1 °F 32.5 °F 30.12 in Calm     90% 0.00 in
03:09 35.1 °F 32.7 °F 30.12 in Calm     91% 0.00 in
03:14 34.8 °F 32.2 °F 30.11 in Calm     90% 0.00 in
03:19 34.8 °F 32.4 °F 30.11 in Calm     91% 0.00 in
03:24 34.6 °F 32.0 °F 30.12 in Calm     90% 0.00 in
03:29 34.7 °F 32.3 °F 30.11 in Calm     91% 0.00 in
03:34 34.6 °F 32.2 °F 30.11 in Calm     91% 0.00 in
03:39 34.5 °F 31.9 °F 30.11 in Calm     90% 0.00 in
03:44 34.5 °F 32.1 °F 30.11 in Calm     91% 0.00 in
03:49 34.3 °F 31.7 °F 30.11 in Calm     90% 0.00 in
03:54 34.1 °F 31.7 °F 30.11 in Calm     91% 0.00 in
03:59 34.0 °F 31.6 °F 30.11 in Calm     91% 0.00 in
04:04 34.0 °F 31.6 °F 30.11 in Calm     91% 0.00 in
04:09 34.0 °F 31.4 °F 30.11 in Calm     90% 0.00 in
04:14 33.9 °F 31.6 °F 30.11 in Calm     91% 0.00 in
04:19 33.7 °F 31.4 °F 30.11 in Calm     91% 0.00 in
04:24 33.7 °F 31.4 °F 30.11 in Calm     91% 0.00 in
04:29 33.6 °F 31.3 °F 30.11 in Calm     91% 0.00 in
04:34 33.6 °F 31.3 °F 30.11 in Calm     91% 0.00 in
04:39 33.5 °F 31.2 °F 30.11 in Calm     91% 0.00 in
04:44 33.6 °F 31.3 °F 30.11 in Calm     91% 0.00 in
04:49 33.8 °F 31.5 °F 30.11 in Calm     91% 0.00 in
04:54 33.8 °F 31.5 °F 30.11 in Calm     91% 0.00 in
04:59 33.8 °F 31.5 °F 30.11 in Calm     91% 0.00 in
05:04 33.9 °F 31.6 °F 30.11 in Calm     91% 0.00 in
05:09 33.5 °F 30.9 °F 30.12 in Calm     90% 0.00 in
05:14 33.5 °F 31.2 °F 30.11 in Calm     91% 0.00 in
05:19 33.4 °F 31.1 °F 30.12 in Calm     91% 0.00 in
05:24 33.5 °F 31.2 °F 30.12 in Calm     91% 0.00 in
05:29 33.5 °F 30.9 °F 30.11 in Calm     90% 0.00 in
05:34 33.6 °F 31.3 °F 30.11 in Calm     91% 0.00 in
05:39 33.7 °F 31.1 °F 30.12 in Calm     90% 0.00 in
05:44 33.5 °F 30.9 °F 30.12 in Calm     90% 0.00 in
05:49 33.6 °F 31.0 °F 30.12 in Calm     90% 0.00 in
05:54 33.5 °F 30.9 °F 30.12 in Calm     90% 0.00 in
05:59 33.5 °F 30.9 °F 30.12 in Calm     90% 0.00 in
06:04 33.5 °F 30.9 °F 30.12 in Calm     90% 0.00 in
06:09 33.5 °F 30.9 °F 30.12 in Calm     90% 0.00 in
06:14 33.3 °F 30.7 °F 30.12 in Calm     90% 0.00 in
06:19 33.3 °F 30.7 °F 30.12 in Calm     90% 0.00 in
06:24 33.1 °F 30.5 °F 30.13 in Calm     90% 0.00 in
06:29 33.0 °F 30.4 °F 30.13 in Calm     90% 0.00 in
06:34 33.0 °F 30.4 °F 30.14 in Calm     90% 0.00 in
06:39 33.0 °F 30.4 °F 30.14 in Calm     90% 0.00 in
06:44 33.1 °F 30.8 °F 30.14 in Calm     91% 0.00 in
06:49 33.3 °F 31.0 °F 30.14 in Calm     91% 0.00 in
06:54 33.5 °F 31.2 °F 30.14 in Calm     91% 0.00 in
06:59 33.9 °F 31.6 °F 30.14 in Calm     91% 0.00 in
07:04 34.4 °F 32.0 °F 30.14 in Calm     91% 0.00 in
07:09 34.8 °F 32.2 °F 30.15 in Calm     90% 0.00 in
07:14 35.3 °F 32.7 °F 30.15 in Calm     90% 0.00 in
07:19 35.6 °F 33.0 °F 30.15 in Calm     90% 0.00 in
07:24 35.9 °F 33.0 °F 30.15 in Calm     89% 0.00 in
07:29 36.4 °F 33.5 °F 30.15 in Calm     89% 0.00 in
07:34 36.7 °F 33.5 °F 30.15 in SSW 2.0 mph 4.0 mph 88% 0.00 in
07:39 37.1 °F 33.9 °F 30.15 in SSW 1.0 mph 4.0 mph 88% 0.00 in
07:44 37.6 °F 34.1 °F 30.15 in SSW 3.0 mph 3.0 mph 87% 0.00 in
07:49 38.0 °F 34.5 °F 30.15 in South 2.0 mph 4.0 mph 87% 0.00 in
07:54 38.6 °F 34.5 °F 30.15 in South 2.0 mph 4.0 mph 85% 0.00 in
07:59 39.1 °F 35.0 °F 30.15 in South 2.0 mph 5.0 mph 85% 0.00 in
08:04 39.7 °F 35.0 °F 30.15 in South 3.0 mph 5.0 mph 83% 0.00 in
08:09 40.4 °F 35.3 °F 30.15 in SSW 2.0 mph 5.0 mph 82% 0.00 in
08:14 41.1 °F 36.0 °F 30.15 in South 5.0 mph 5.0 mph 82% 0.00 in
08:19 41.7 °F 36.3 °F 30.15 in SSW 3.0 mph 5.0 mph 81% 0.00 in
08:24 42.5 °F 36.4 °F 30.15 in SSW 2.0 mph 5.0 mph 79% 0.00 in
08:29 43.2 °F 36.8 °F 30.15 in SW 2.0 mph 6.0 mph 78% 0.00 in
08:34 44.1 °F 37.7 °F 30.15 in SW 2.0 mph 6.0 mph 78% 0.00 in
08:39 44.8 °F 37.7 °F 30.15 in WSW 4.0 mph 6.0 mph 76% 0.00 in
08:44 45.7 °F 37.9 °F 30.15 in WSW 2.0 mph 7.0 mph 74% 0.00 in
08:49 46.2 °F 37.7 °F 30.15 in SSW 5.0 mph 8.0 mph 72% 0.00 in
08:54 46.3 °F 37.4 °F 30.15 in SW 2.0 mph 9.0 mph 71% 0.00 in
08:59 46.9 °F 38.3 °F 30.15 in SSW 7.0 mph 7.0 mph 72% 0.00 in
09:04 47.1 °F 37.8 °F 30.15 in SSW 5.0 mph 9.0 mph 70% 0.00 in
09:09 47.5 °F 38.6 °F 30.15 in WSW 3.0 mph 8.0 mph 71% 0.00 in
09:14 48.3 °F 38.6 °F 30.15 in WSW 3.0 mph 6.0 mph 69% 0.00 in
09:19 49.0 °F 38.5 °F 30.15 in SW 4.0 mph 8.0 mph 67% 0.00 in
09:24 48.9 °F 38.0 °F 30.15 in WSW 5.0 mph 10.0 mph 66% 0.00 in
09:29 49.0 °F 37.3 °F 30.15 in WSW 5.0 mph 10.0 mph 64% 0.00 in
09:34 49.7 °F 38.8 °F 30.15 in WSW 5.0 mph 9.0 mph 66% 0.00 in
09:39 50.3 °F 38.6 °F 30.15 in WSW 4.0 mph 8.0 mph 64% 0.00 in
09:44 50.4 °F 38.7 °F 30.15 in SW 5.0 mph 8.0 mph 64% 0.00 in
09:49 50.6 °F 38.5 °F 30.15 in WSW 5.0 mph 7.0 mph 63% 0.00 in
09:54 51.1 °F 38.5 °F 30.15 in West 6.0 mph 8.0 mph 62% 0.00 in
09:59 51.4 °F 39.2 °F 30.14 in South 7.0 mph 8.0 mph 63% 0.00 in
10:04 51.5 °F 38.9 °F 30.14 in South 9.0 mph 11.0 mph 62% 0.00 in
10:09 51.7 °F 38.7 °F 30.14 in South 4.0 mph 10.0 mph 61% 0.00 in
10:14 52.2 °F 39.6 °F 30.14 in SW 5.0 mph 9.0 mph 62% 0.00 in
10:19 52.4 °F 38.9 °F 30.14 in SW 5.0 mph 9.0 mph 60% 0.00 in
10:24 53.0 °F 39.5 °F 30.15 in WSW 5.0 mph 11.0 mph 60% 0.00 in
10:29 53.1 °F 40.0 °F 30.15 in WSW 5.0 mph 11.0 mph 61% 0.00 in
10:34 53.5 °F 38.6 °F 30.15 in WSW 5.0 mph 11.0 mph 57% 0.00 in
10:39 53.5 °F 39.1 °F 30.14 in West 5.0 mph 9.0 mph 58% 0.00 in
10:44 53.1 °F 37.8 °F 30.14 in WSW 4.0 mph 10.0 mph 56% 0.00 in
10:49 53.3 °F 38.4 °F 30.14 in SW 6.0 mph 9.0 mph 57% 0.00 in
10:54 53.8 °F 39.8 °F 30.14 in SW 7.0 mph 11.0 mph 59% 0.00 in
10:59 54.0 °F 40.0 °F 30.14 in WSW 3.0 mph 8.0 mph 59% 0.00 in
11:04 54.7 °F 40.2 °F 30.14 in WSW 4.0 mph 8.0 mph 58% 0.00 in
11:09 54.6 °F 38.7 °F 30.14 in SW 6.0 mph 8.0 mph 55% 0.00 in
11:14 54.8 °F 38.9 °F 30.14 in SW 3.0 mph 9.0 mph 55% 0.00 in
11:19 55.2 °F 38.8 °F 30.14 in WSW 5.0 mph 9.0 mph 54% 0.00 in
11:24 55.7 °F 40.2 °F 30.14 in WSW 4.0 mph 9.0 mph 56% 0.00 in
11:29 55.9 °F 40.9 °F 30.14 in WSW 4.0 mph 9.0 mph 57% 0.00 in
11:34 56.5 °F 39.6 °F 30.14 in West 4.0 mph 9.0 mph 53% 0.00 in
11:39 55.6 °F 39.2 °F 30.14 in West 5.0 mph 10.0 mph 54% 0.00 in
11:44 56.6 °F 40.1 °F 30.14 in West 5.0 mph 9.0 mph 54% 0.00 in
11:49 56.4 °F 38.5 °F 30.14 in West 5.0 mph 10.0 mph 51% 0.00 in
11:54 56.5 °F 38.1 °F 30.14 in SW 2.0 mph 11.0 mph 50% 0.00 in
11:59 56.6 °F 38.7 °F 30.13 in WSW 9.0 mph 12.0 mph 51% 0.00 in
12:04 57.0 °F 39.5 °F 30.14 in West 2.0 mph 10.0 mph 52% 0.00 in
12:09 57.5 °F 37.4 °F 30.13 in WSW 6.0 mph 9.0 mph 47% 0.00 in
12:14 57.6 °F 39.6 °F 30.13 in WSW 4.0 mph 9.0 mph 51% 0.00 in
12:19 58.2 °F 38.1 °F 30.13 in SW 6.0 mph 10.0 mph 47% 0.00 in
12:24 58.0 °F 36.2 °F 30.13 in WSW 6.0 mph 11.0 mph 44% 0.00 in
12:29 57.8 °F 36.0 °F 30.13 in SW 8.0 mph 11.0 mph 44% 0.00 in
12:34 58.2 °F 35.8 °F 30.13 in SW 7.0 mph 13.0 mph 43% 0.00 in
12:39 58.1 °F 36.9 °F 30.12 in WSW 6.0 mph 9.0 mph 45% 0.00 in
12:44 59.2 °F 36.1 °F 30.12 in WSW 5.0 mph 10.0 mph 42% 0.00 in
12:49 59.1 °F 36.0 °F 30.12 in SW 6.0 mph 11.0 mph 42% 0.00 in
12:54 58.6 °F 33.7 °F 30.12 in WSW 6.0 mph 13.0 mph 39% 0.00 in
12:59 58.8 °F 33.2 °F 30.12 in WSW 7.0 mph 13.0 mph 38% 0.00 in
13:04 59.3 °F 35.6 °F 30.11 in SW 6.0 mph 12.0 mph 41% 0.00 in
13:09 59.9 °F 35.5 °F 30.11 in SW 7.0 mph 10.0 mph 40% 0.00 in
13:14 60.0 °F 30.8 °F 30.11 in SW 5.0 mph 13.0 mph 33% 0.00 in
13:19 59.4 °F 31.0 °F 30.11 in WSW 5.0 mph 13.0 mph 34% 0.00 in
13:24 60.1 °F 31.6 °F 30.11 in SW 7.0 mph 10.0 mph 34% 0.00 in
13:29 59.9 °F 29.2 °F 30.11 in WSW 8.0 mph 11.0 mph 31% 0.00 in
13:34 60.0 °F 31.5 °F 30.11 in WSW 5.0 mph 10.0 mph 34% 0.00 in
13:39 60.0 °F 32.2 °F 30.11 in West 5.0 mph 10.0 mph 35% 0.00 in
13:44 60.0 °F 30.0 °F 30.10 in WSW 6.0 mph 10.0 mph 32% 0.00 in
13:49 60.3 °F 30.3 °F 30.10 in WSW 6.0 mph 10.0 mph 32% 0.00 in
13:54 60.4 °F 31.1 °F 30.10 in WSW 5.0 mph 11.0 mph 33% 0.00 in
14:00 60.6 °F 32.8 °F 30.09 in WSW 5.0 mph 11.0 mph 35% 0.00 in
14:05 60.8 °F 30.7 °F 30.09 in WSW 5.0 mph 10.0 mph 32% 0.00 in
14:10 60.9 °F 30.8 °F 30.09 in WSW 5.0 mph 9.0 mph 32% 0.00 in
14:15 61.1 °F 31.8 °F 30.09 in SSW 4.0 mph 9.0 mph 33% 0.00 in
14:20 61.6 °F 33.7 °F 30.09 in SW 5.0 mph 9.0 mph 35% 0.00 in
14:25 61.8 °F 33.1 °F 30.09 in SW 7.0 mph 8.0 mph 34% 0.00 in
14:30 61.4 °F 32.8 °F 30.09 in SSW 3.0 mph 8.0 mph 34% 0.00 in
14:35 61.4 °F 33.5 °F 30.09 in South 6.0 mph 10.0 mph 35% 0.00 in
14:40 61.3 °F 31.2 °F 30.09 in West 5.0 mph 9.0 mph 32% 0.00 in
14:45 62.0 °F 35.4 °F 30.09 in SW 5.0 mph 9.0 mph 37% 0.00 in
14:50 61.4 °F 31.3 °F 30.09 in WSW 5.0 mph 11.0 mph 32% 0.00 in
14:55 61.2 °F 30.3 °F 30.08 in SW 5.0 mph 11.0 mph 31% 0.00 in
15:00 61.4 °F 32.0 °F 30.08 in WSW 5.0 mph 10.0 mph 33% 0.00 in
15:05 62.2 °F 34.9 °F 30.08 in West 4.0 mph 9.0 mph 36% 0.00 in
15:10 62.1 °F 32.6 °F 30.07 in SW 5.0 mph 8.0 mph 33% 0.00 in
15:15 62.3 °F 32.0 °F 30.07 in SW 4.0 mph 9.0 mph 32% 0.00 in
15:20 61.9 °F 26.6 °F 30.07 in SSW 5.0 mph 8.0 mph 26% 0.00 in
15:25 61.5 °F 28.9 °F 30.07 in SW 6.0 mph 10.0 mph 29% 0.00 in
15:30 61.8 °F 27.4 °F 30.07 in SW 4.0 mph 10.0 mph 27% 0.00 in
15:35 61.9 °F 30.9 °F 30.07 in WSW 7.0 mph 8.0 mph 31% 0.00 in
15:40 61.7 °F 29.9 °F 30.07 in WSW 2.0 mph 11.0 mph 30% 0.00 in
15:45 62.0 °F 29.3 °F 30.07 in WSW 4.0 mph 9.0 mph 29% 0.00 in
15:50 62.3 °F 30.4 °F 30.07 in WSW 4.0 mph 10.0 mph 30% 0.00 in
15:55 62.3 °F 26.0 °F 30.07 in WSW 5.0 mph 10.0 mph 25% 0.00 in
16:00 61.9 °F 30.1 °F 30.06 in WSW 5.0 mph 11.0 mph 30% 0.00 in
16:05 62.6 °F 29.0 °F 30.06 in SW 5.0 mph 9.0 mph 28% 0.00 in
16:10 62.1 °F 28.6 °F 30.07 in WSW 6.0 mph 10.0 mph 28% 0.00 in
16:15 61.3 °F 26.1 °F 30.07 in WSW 2.0 mph 10.0 mph 26% 0.00 in
16:20 62.1 °F 31.9 °F 30.07 in WSW 5.0 mph 10.0 mph 32% 0.00 in
16:25 61.6 °F 29.8 °F 30.07 in WSW 5.0 mph 10.0 mph 30% 0.00 in
16:30 61.3 °F 27.9 °F 30.07 in SW 6.0 mph 10.0 mph 28% 0.00 in
16:35 61.9 °F 30.9 °F 30.07 in WSW 2.0 mph 8.0 mph 31% 0.00 in
16:40 61.5 °F 30.6 °F 30.07 in West 6.0 mph 10.0 mph 31% 0.00 in
16:45 60.9 °F 29.2 °F 30.07 in WSW 5.0 mph 10.0 mph 30% 0.00 in
16:50 60.9 °F 30.0 °F 30.07 in WSW 6.0 mph 10.0 mph 31% 0.00 in
16:55 61.2 °F 32.6 °F 30.06 in SW 2.0 mph 8.0 mph 34% 0.00 in
17:00 61.3 °F 32.7 °F 30.06 in WSW 5.0 mph 8.0 mph 34% 0.00 in
17:05 60.9 °F 31.6 °F 30.07 in WSW 4.0 mph 8.0 mph 33% 0.00 in
17:10 60.7 °F 30.6 °F 30.07 in SW 5.0 mph 9.0 mph 32% 0.00 in
17:15 60.2 °F 28.6 °F 30.07 in SW 7.0 mph 9.0 mph 30% 0.00 in
17:20 60.1 °F 28.5 °F 30.07 in SW 5.0 mph 10.0 mph 30% 0.00 in
17:25 60.5 °F 29.7 °F 30.07 in WSW 5.0 mph 10.0 mph 31% 0.00 in
17:30 60.8 °F 29.1 °F 30.07 in SW 5.0 mph 9.0 mph 30% 0.00 in
17:35 61.0 °F 29.3 °F 30.07 in SW 5.0 mph 10.0 mph 30% 0.00 in
17:40 61.0 °F 29.3 °F 30.07 in West 3.0 mph 8.0 mph 30% 0.00 in
17:45 61.1 °F 29.4 °F 30.07 in SSW 4.0 mph 7.0 mph 30% 0.00 in
17:50 61.2 °F 29.5 °F 30.07 in SSW 4.0 mph 6.0 mph 30% 0.00 in
17:55 61.5 °F 28.9 °F 30.06 in WSW 3.0 mph 7.0 mph 29% 0.00 in
18:00 61.4 °F 27.1 °F 30.07 in WSW 3.0 mph 8.0 mph 27% 0.00 in
18:05 61.3 °F 26.1 °F 30.07 in SW 5.0 mph 7.0 mph 26% 0.00 in
18:10 61.1 °F 25.9 °F 30.07 in WSW 2.0 mph 8.0 mph 26% 0.00 in
18:15 60.8 °F 25.7 °F 30.07 in West 3.0 mph 8.0 mph 26% 0.00 in
18:20 60.8 °F 23.7 °F 30.07 in West 3.0 mph 7.0 mph 24% 0.00 in
18:25 60.8 °F 24.7 °F 30.07 in West 3.0 mph 7.0 mph 25% 0.00 in
18:30 60.8 °F 25.7 °F 30.07 in WSW 3.0 mph 6.0 mph 26% 0.00 in
18:35 60.7 °F 24.6 °F 30.07 in SW 4.0 mph 5.0 mph 25% 0.00 in
18:40 60.6 °F 23.6 °F 30.07 in SW 3.0 mph 7.0 mph 24% 0.00 in
18:45 60.6 °F 25.5 °F 30.07 in SSW 3.0 mph 6.0 mph 26% 0.00 in
18:50 60.5 °F 24.5 °F 30.07 in SW 4.0 mph 6.0 mph 25% 0.00 in
18:55 60.3 °F 27.0 °F 30.07 in SSW 4.0 mph 6.0 mph 28% 0.00 in
19:00 60.0 °F 26.8 °F 30.07 in SSW 2.0 mph 7.0 mph 28% 0.00 in
19:05 59.8 °F 29.1 °F 30.07 in SW 4.0 mph 5.0 mph 31% 0.00 in
19:10 59.6 °F 28.9 °F 30.07 in SW 3.0 mph 5.0 mph 31% 0.00 in
19:15 59.3 °F 29.4 °F 30.07 in SW 3.0 mph 6.0 mph 32% 0.00 in
19:20 58.9 °F 29.1 °F 30.07 in SW 3.0 mph 6.0 mph 32% 0.00 in
19:25 58.4 °F 27.9 °F 30.07 in SSW 3.0 mph 7.0 mph 31% 0.00 in
19:30 58.0 °F 29.0 °F 30.07 in SW 3.0 mph 7.0 mph 33% 0.00 in
19:35 57.5 °F 28.6 °F 30.07 in SSW 3.0 mph 5.0 mph 33% 0.00 in
19:40 57.2 °F 29.1 °F 30.06 in SW 2.0 mph 5.0 mph 34% 0.00 in
19:45 56.8 °F 30.1 °F 30.06 in SW 2.0 mph 5.0 mph 36% 0.00 in
19:50 56.5 °F 31.2 °F 30.06 in SSW 2.0 mph 5.0 mph 38% 0.00 in
19:55 55.9 °F 30.6 °F 30.06 in SW 1.0 mph 4.0 mph 38% 0.00 in
20:00 55.4 °F 29.5 °F 30.06 in SW 2.0 mph 3.0 mph 37% 0.00 in
20:05 55.1 °F 29.3 °F 30.06 in SW 2.0 mph 3.0 mph 37% 0.00 in
20:10 54.8 °F 28.3 °F 30.06 in WSW 1.0 mph 4.0 mph 36% 0.00 in
20:15 54.3 °F 28.6 °F 30.06 in WSW 1.0 mph 4.0 mph 37% 0.00 in
20:20 53.9 °F 29.5 °F 30.06 in WSW 1.0 mph 3.0 mph 39% 0.00 in
20:25 53.5 °F 29.1 °F 30.06 in WSW 1.0 mph 2.0 mph 39% 0.00 in
20:30 53.1 °F 30.0 °F 30.06 in WSW 1.0 mph 2.0 mph 41% 0.00 in
20:35 52.8 °F 29.7 °F 30.06 in Calm     41% 0.00 in
20:40 52.6 °F 30.1 °F 30.06 in Calm     42% 0.00 in
20:45 52.2 °F 30.4 °F 30.06 in Calm     43% 0.00 in
20:50 51.7 °F 31.0 °F 30.06 in Calm   2.0 mph 45% 0.00 in
20:55 51.3 °F 31.2 °F 30.07 in South 3.0 mph 3.0 mph 46% 0.00 in
21:00 50.9 °F 31.4 °F 30.07 in South 1.0 mph 3.0 mph 47% 0.00 in
21:05 50.6 °F 31.1 °F 30.07 in Calm   2.0 mph 47% 0.00 in
21:10 50.3 °F 31.8 °F 30.08 in South 1.0 mph 3.0 mph 49% 0.00 in
21:15 49.9 °F 31.5 °F 30.08 in South 1.0 mph 3.0 mph 49% 0.00 in
21:20 49.6 °F 31.7 °F 30.08 in Calm   3.0 mph 50% 0.00 in
21:25 49.3 °F 32.4 °F 30.08 in SSW 2.0 mph 3.0 mph 52% 0.00 in
21:30 49.0 °F 32.1 °F 30.08 in SW 3.0 mph 4.0 mph 52% 0.00 in
21:35 48.9 °F 32.5 °F 30.08 in SW 1.0 mph 3.0 mph 53% 0.00 in
21:40 48.7 °F 32.8 °F 30.08 in SW 1.0 mph 3.0 mph 54% 0.00 in
21:45 48.6 °F 32.7 °F 30.08 in SW 1.0 mph 3.0 mph 54% 0.00 in
21:50 48.3 °F 32.4 °F 30.08 in Calm   2.0 mph 54% 0.00 in
21:55 48.1 °F 32.2 °F 30.09 in Calm     54% 0.00 in
22:00 47.8 °F 32.4 °F 30.09 in Calm     55% 0.00 in
22:05 47.5 °F 32.1 °F 30.09 in Calm     55% 0.00 in
22:10 47.3 °F 31.9 °F 30.09 in Calm     55% 0.00 in
22:15 46.9 °F 32.0 °F 30.08 in Calm     56% 0.00 in
22:20 46.5 °F 32.1 °F 30.08 in Calm     57% 0.00 in
22:25 46.2 °F 31.8 °F 30.08 in Calm     57% 0.00 in
22:30 46.0 °F 32.0 °F 30.09 in Calm     58% 0.00 in
22:35 45.7 °F 31.8 °F 30.09 in Calm     58% 0.00 in
22:40 45.4 °F 32.3 °F 30.08 in Calm     60% 0.00 in
22:45 45.2 °F 32.1 °F 30.08 in Calm     60% 0.00 in
22:50 44.9 °F 32.3 °F 30.09 in Calm     61% 0.00 in
22:55 44.7 °F 32.5 °F 30.09 in Calm     62% 0.00 in
23:00 44.5 °F 32.3 °F 30.09 in Calm     62% 0.00 in
23:05 44.3 °F 32.5 °F 30.09 in Calm     63% 0.00 in
23:10 44.1 °F 32.3 °F 30.09 in Calm     63% 0.00 in
23:20 43.7 °F 32.3 °F 30.09 in Calm     64% 0.00 in
23:25 43.5 °F 32.5 °F 30.09 in Calm     65% 0.00 in
23:30 43.4 °F 32.8 °F 30.09 in Calm     66% 0.00 in
23:35 43.3 °F 32.7 °F 30.09 in Calm     66% 0.00 in
23:40 43.1 °F 32.9 °F 30.09 in Calm     67% 0.00 in
23:45 42.9 °F 33.1 °F 30.09 in Calm     68% 0.00 in
23:50 42.7 °F 32.9 °F 30.09 in Calm     68% 0.00 in
23:55 42.6 °F 33.1 °F 30.08 in Calm     69% 0.00 in
Buffalo, New York, USA
Compliments of Weather Underground - 2.5 mb